createdAt,value
2019-02-19T00:02:56.347Z,62094.81
2019-02-19T00:05:22.599Z,62086.71
2019-02-19T00:07:48.849Z,62071.86
2019-02-19T00:10:56.391Z,62076.41
2019-02-19T00:13:22.619Z,62093.20
2019-02-19T00:15:48.865Z,62083.20
2019-02-19T00:18:15.087Z,62063.83
2019-02-19T00:20:41.341Z,62044.92
2019-02-19T00:23:07.588Z,62037.16
2019-02-19T00:25:33.824Z,62024.34
2019-02-19T00:28:00.057Z,62025.62
2019-02-19T00:30:26.295Z,62025.32
2019-02-19T00:32:52.550Z,62018.05
2019-02-19T00:35:18.796Z,62018.25
2019-02-19T00:37:45.048Z,62018.11
2019-02-19T00:40:11.298Z,62020.24
2019-02-19T00:42:37.527Z,62013.30
2019-02-19T00:45:45.077Z,61998.95
2019-02-19T00:48:11.320Z,61993.95
2019-02-19T00:50:37.560Z,62007.29
2019-02-19T00:53:03.797Z,61997.32
2019-02-19T00:55:30.076Z,62015.39
2019-02-19T00:57:56.321Z,61996.26
2019-02-19T01:00:22.553Z,61996.92
2019-02-19T01:02:48.807Z,61987.88
2019-02-19T01:05:15.041Z,61981.25
2019-02-19T01:07:41.285Z,61973.63
2019-02-19T01:10:07.508Z,61977.59
2019-02-19T01:12:33.748Z,61962.89
2019-02-19T01:14:59.971Z,61962.16
2019-02-19T01:17:26.214Z,61955.98
2019-02-19T01:19:52.447Z,61955.34
2019-02-19T01:22:18.688Z,61948.94
2019-02-19T01:24:44.931Z,61944.64
2019-02-19T01:27:11.174Z,61942.68
2019-02-19T01:29:37.403Z,61937.96
2019-02-19T01:32:03.646Z,61931.48
2019-02-19T01:34:29.874Z,61930.73
2019-02-19T01:36:56.125Z,61899.33
2019-02-19T01:39:22.368Z,61920.40
2019-02-19T01:41:48.612Z,61917.68
2019-02-19T01:44:14.839Z,61904.71
2019-02-19T01:46:41.079Z,61913.25
2019-02-19T01:49:48.614Z,61909.41
2019-02-19T01:52:14.873Z,61896.07
2019-02-19T01:54:41.103Z,61905.29
2019-02-19T01:57:07.348Z,61890.50
2019-02-19T01:59:33.580Z,61892.16
2019-02-19T02:01:59.856Z,61892.51
2019-02-19T02:04:26.095Z,61894.85
2019-02-19T02:06:52.340Z,61898.16
2019-02-19T02:09:18.574Z,61902.05
2019-02-19T02:11:44.824Z,61865.34
2019-02-19T02:14:11.048Z,61863.44
2019-02-19T02:16:37.277Z,61851.59
2019-02-19T02:19:03.539Z,61862.16
2019-02-19T02:21:29.764Z,61848.46
2019-02-19T02:23:56.011Z,61851.54
2019-02-19T02:26:22.232Z,61852.60
2019-02-19T02:28:48.491Z,61854.56
2019-02-19T02:31:14.728Z,61859.12
2019-02-19T02:33:40.962Z,61861.62
2019-02-19T02:36:07.226Z,61841.11
2019-02-19T02:38:33.453Z,61855.15
2019-02-19T02:40:59.684Z,61856.78
2019-02-19T02:43:25.919Z,61851.87
2019-02-19T02:45:53.699Z,61866.34
2019-02-19T02:48:20.324Z,61861.37
2019-02-19T02:50:46.550Z,61867.76
2019-02-19T02:53:12.812Z,61877.79
2019-02-19T02:55:39.055Z,61871.59
2019-02-19T02:58:05.300Z,61867.16
2019-02-19T03:00:31.539Z,61881.54
2019-02-19T03:02:57.811Z,61869.46
2019-02-19T03:05:25.391Z,61879.39
2019-02-19T03:10:25.890Z,61845.67
2019-02-19T03:12:52.140Z,61829.92
2019-02-19T03:15:18.401Z,61820.42
2019-02-19T03:17:44.640Z,61833.04
2019-02-19T03:20:10.895Z,61819.55
2019-02-19T03:22:37.128Z,61822.10
2019-02-19T03:25:44.681Z,61821.69
2019-02-19T03:28:10.947Z,61828.48
2019-02-19T03:30:37.186Z,61815.23
2019-02-19T03:33:03.434Z,61816.50
2019-02-19T03:35:29.675Z,61812.89
2019-02-19T03:37:55.922Z,61826.58
2019-02-19T03:40:22.243Z,61815.80
2019-02-19T03:42:48.517Z,61786.88
2019-02-19T03:45:14.779Z,61776.36
2019-02-19T03:47:40.986Z,61756.17
2019-02-19T03:50:07.249Z,61745.07
2019-02-19T03:52:33.495Z,61729.94
2019-02-19T03:54:59.735Z,61734.46
2019-02-19T03:57:25.978Z,61709.87
2019-02-19T03:59:52.227Z,61717.13
2019-02-19T04:02:18.525Z,61712.03
2019-02-19T04:04:44.845Z,61709.59
2019-02-19T04:07:11.073Z,61698.42
2019-02-19T04:09:37.327Z,61702.16
2019-02-19T04:12:03.563Z,61690.74
2019-02-19T04:14:29.805Z,61682.43
2019-02-19T04:16:56.042Z,61681.88
2019-02-19T04:19:22.284Z,61680.23
2019-02-19T04:21:48.530Z,61682.43
2019-02-19T04:24:14.769Z,61689.52
2019-02-19T04:26:41.021Z,61686.19
2019-02-19T04:29:07.259Z,61690.91
2019-02-19T04:31:33.521Z,61690.20
2019-02-19T04:33:59.762Z,61682.23
2019-02-19T04:36:26.016Z,61688.06
2019-02-19T04:38:52.251Z,61674.51
2019-02-19T04:41:18.498Z,61676.16
2019-02-19T04:43:44.736Z,61670.74
2019-02-19T04:46:10.982Z,61666.24
2019-02-19T04:48:37.238Z,61668.16
2019-02-19T04:51:03.473Z,61655.67
2019-02-19T04:53:29.730Z,61657.34
2019-02-19T04:55:55.968Z,61657.13
2019-02-19T04:58:22.206Z,61658.89
2019-02-19T05:00:48.464Z,61664.39
2019-02-19T05:03:14.738Z,61660.18
2019-02-19T05:05:41.004Z,61644.47
2019-02-19T05:08:07.237Z,61640.29
2019-02-19T05:10:33.493Z,61633.30
2019-02-19T05:12:59.727Z,61607.46
2019-02-19T05:15:25.981Z,61606.84
2019-02-19T05:17:52.213Z,61612.86
2019-02-19T05:20:18.457Z,61602.83
2019-02-19T05:22:44.709Z,61603.84
2019-02-19T05:25:10.946Z,61624.68
2019-02-19T05:27:37.245Z,61611.23
2019-02-19T05:33:17.135Z,61618.46
2019-02-19T05:35:43.374Z,61613.82
2019-02-19T05:38:09.624Z,61616.09
2019-02-19T05:40:35.865Z,61605.51
2019-02-19T05:43:02.122Z,61602.10
2019-02-19T05:45:28.350Z,61599.93
2019-02-19T05:47:54.603Z,61602.29
2019-02-19T05:50:20.941Z,61601.02
2019-02-19T05:52:47.193Z,61601.94
2019-02-19T05:55:13.433Z,61594.76
2019-02-19T05:57:39.689Z,61585.79
2019-02-19T06:00:25.702Z,61596.64
2019-02-19T06:02:51.945Z,61593.84
2019-02-19T06:05:18.185Z,61604.15
2019-02-19T06:07:44.443Z,61601.42
2019-02-19T06:13:24.740Z,61604.64
2019-02-19T06:15:50.980Z,61614.82
2019-02-19T06:18:17.232Z,61615.78
2019-02-19T06:20:43.485Z,61611.58
2019-02-19T06:23:09.728Z,61610.50
2019-02-19T06:25:35.970Z,61621.36
2019-02-19T06:28:02.225Z,61622.44
2019-02-19T06:30:28.460Z,61618.57
2019-02-19T06:32:54.709Z,61623.40
2019-02-19T06:35:20.948Z,61642.97
2019-02-19T06:37:47.194Z,61641.79
2019-02-19T06:40:33.180Z,61637.59
2019-02-19T06:42:59.442Z,61629.97
2019-02-19T06:45:25.681Z,61625.77
2019-02-19T06:47:51.930Z,61604.92
2019-02-19T06:50:18.190Z,61618.13
2019-02-19T06:52:44.522Z,61618.03
2019-02-19T06:55:10.769Z,61624.13
2019-02-19T06:57:37.036Z,61646.20
2019-02-19T07:05:50.795Z,61660.95
2019-02-19T07:08:17.053Z,61662.12
2019-02-19T07:10:43.295Z,61678.57
2019-02-19T07:13:09.549Z,61684.64
2019-02-19T07:15:35.788Z,61691.29
2019-02-19T07:18:02.053Z,61687.08
2019-02-19T07:20:28.292Z,61679.34
2019-02-19T07:22:54.540Z,61683.84
2019-02-19T07:25:20.789Z,61694.32
2019-02-19T07:27:47.024Z,61700.18
2019-02-19T07:30:13.326Z,61710.57
2019-02-19T07:32:39.524Z,61722.59
2019-02-19T07:35:47.098Z,61733.27
2019-02-19T07:38:13.332Z,61732.08
2019-02-19T07:40:39.627Z,61739.62
2019-02-19T07:43:05.853Z,61751.39
2019-02-19T07:45:32.108Z,61753.15
2019-02-19T07:47:58.344Z,61772.15
2019-02-19T07:50:24.601Z,61771.36
2019-02-19T07:52:50.841Z,61767.62
2019-02-19T07:55:17.090Z,61780.27
2019-02-19T07:57:43.328Z,61792.53
2019-02-19T08:00:29.323Z,61794.95
2019-02-19T08:02:55.567Z,61805.54
2019-02-19T08:05:21.811Z,61835.73
2019-02-19T08:07:48.045Z,61837.58
2019-02-19T08:10:14.296Z,61855.97
2019-02-19T08:12:40.540Z,61862.11
2019-02-19T08:15:48.092Z,61879.03
2019-02-19T08:18:14.327Z,61904.74
2019-02-19T08:20:40.589Z,61903.74
2019-02-19T08:23:06.815Z,61921.64
2019-02-19T08:25:33.058Z,61932.34
2019-02-19T08:27:59.298Z,61938.96
2019-02-19T08:30:25.543Z,61765.39
2019-02-19T08:32:51.773Z,61958.24
2019-02-19T08:35:18.030Z,61957.93
2019-02-19T08:37:44.272Z,61966.75
2019-02-19T08:40:10.530Z,61970.75
2019-02-19T08:42:36.752Z,61974.12
2019-02-19T08:45:44.310Z,61988.89
2019-02-19T08:48:10.546Z,62012.57
2019-02-19T08:50:36.795Z,62025.62
2019-02-19T08:53:03.041Z,62046.14
2019-02-19T08:55:29.292Z,62080.76
2019-02-19T08:57:55.541Z,62089.37
2019-02-19T09:00:21.798Z,62106.46
2019-02-19T09:02:48.031Z,62134.57
2019-02-19T09:05:14.273Z,62152.12
2019-02-19T09:07:40.509Z,62157.95
2019-02-19T09:10:48.064Z,62170.39
2019-02-19T09:13:14.299Z,62169.60
2019-02-19T09:15:40.539Z,62173.76
2019-02-19T09:18:06.771Z,62158.56
2019-02-19T09:20:33.019Z,62157.50
2019-02-19T09:22:59.246Z,62170.47
2019-02-19T09:25:25.478Z,62198.65
2019-02-19T09:27:51.724Z,62194.81
2019-02-19T09:30:17.950Z,62197.51
2019-02-19T09:32:44.194Z,62217.05
2019-02-19T09:35:10.428Z,62211.93
2019-02-19T09:37:36.699Z,62237.62
2019-02-19T09:40:44.230Z,62227.28
2019-02-19T09:43:10.487Z,62242.44
2019-02-19T09:45:36.716Z,62247.36
2019-02-19T09:48:02.974Z,62238.98
2019-02-19T09:50:29.202Z,62248.80
2019-02-19T09:52:59.917Z,62259.57
2019-02-19T09:55:23.580Z,62288.92
2019-02-19T09:57:49.820Z,62302.74
2019-02-19T10:00:16.058Z,62330.78
2019-02-19T10:02:43.803Z,62327.47
2019-02-19T10:08:24.358Z,62320.14
2019-02-19T10:11:31.901Z,62309.11
2019-02-19T10:13:58.151Z,62309.11
2019-02-19T10:16:24.392Z,62315.61
2019-02-19T10:18:50.636Z,62332.94
2019-02-19T10:21:16.870Z,62348.73
2019-02-19T10:23:43.118Z,62368.10
2019-02-19T10:26:09.348Z,62386.21
2019-02-19T10:28:35.598Z,62406.68
2019-02-19T10:31:01.822Z,62388.37
2019-02-19T10:33:40.133Z,62398.95
2019-02-19T10:35:56.243Z,62423.00
2019-02-19T10:38:22.503Z,62459.35
2019-02-19T10:40:48.729Z,62506.77
2019-02-19T10:43:14.966Z,62547.56
2019-02-19T10:45:41.208Z,62589.93
2019-02-19T10:48:07.439Z,62630.67
2019-02-19T10:50:33.694Z,62675.75
2019-02-19T10:52:59.918Z,62707.34
2019-02-19T10:55:26.153Z,62738.57
2019-02-19T10:57:52.384Z,62764.27
2019-02-19T11:00:59.923Z,62788.41
2019-02-19T11:03:26.180Z,62801.15
2019-02-19T11:05:52.437Z,62819.69
2019-02-19T11:08:18.673Z,62811.16
2019-02-19T11:10:44.917Z,62819.11
2019-02-19T11:13:11.167Z,62823.00
2019-02-19T11:15:37.407Z,62824.77
2019-02-19T11:18:03.864Z,62831.43
2019-02-19T11:20:30.105Z,62826.00
2019-02-19T11:22:56.352Z,62830.83
2019-02-19T11:25:22.598Z,62840.03
2019-02-19T11:27:48.863Z,62828.71
2019-02-19T11:30:56.421Z,62843.42
2019-02-19T11:33:22.680Z,62864.11
2019-02-19T11:35:48.937Z,62888.93
2019-02-19T11:38:15.182Z,62903.55
2019-02-19T11:40:41.429Z,62937.43
2019-02-19T11:43:07.672Z,62965.19
2019-02-19T11:45:33.903Z,62968.89
2019-02-19T11:48:00.145Z,62979.68
2019-02-19T11:50:26.380Z,63000.64
2019-02-19T11:52:52.625Z,62993.55
2019-02-19T11:55:18.853Z,62984.37
2019-02-19T11:57:45.098Z,62997.21
2019-02-19T12:00:51.144Z,63004.77
2019-02-19T12:03:17.475Z,63010.72
2019-02-19T12:05:43.712Z,63006.11
2019-02-19T12:08:09.957Z,63006.62
2019-02-19T12:10:36.206Z,63023.81
2019-02-19T12:13:02.453Z,63014.93
2019-02-19T12:15:34.879Z,62999.39
2019-02-19T12:17:56.856Z,62984.80
2019-02-19T12:20:23.082Z,62988.65
2019-02-19T12:22:49.331Z,62977.71
2019-02-19T12:25:15.563Z,62970.07
2019-02-19T12:27:41.834Z,62975.39
2019-02-19T12:30:28.115Z,62960.79
2019-02-19T12:32:54.363Z,62955.93
2019-02-19T12:35:20.599Z,62948.13
2019-02-19T12:37:46.946Z,62931.36
2019-02-19T12:43:09.392Z,62911.53
2019-02-19T12:45:35.633Z,62909.04
2019-02-19T12:48:01.888Z,62903.57
2019-02-19T12:50:28.128Z,62889.60
2019-02-19T12:52:54.384Z,62876.86
2019-02-19T12:55:20.615Z,62836.96
2019-02-19T12:57:46.901Z,62847.23
2019-02-19T13:00:32.992Z,62836.34
2019-02-19T13:02:59.257Z,62825.10
2019-02-19T13:05:25.488Z,62817.50
2019-02-19T13:07:51.738Z,62799.73
2019-02-19T13:10:17.976Z,62791.37
2019-02-19T13:12:44.219Z,62771.22
2019-02-19T13:15:30.215Z,62736.18
2019-02-19T13:17:56.481Z,62735.85
2019-02-19T13:20:22.714Z,62716.13
2019-02-19T13:22:48.966Z,62709.93
2019-02-19T13:25:15.211Z,62709.20
2019-02-19T13:27:41.455Z,62691.51
2019-02-19T13:30:27.458Z,62687.44
2019-02-19T13:32:53.717Z,62670.43
2019-02-19T13:35:19.959Z,62663.98
2019-02-19T13:37:46.254Z,62655.36
2019-02-19T13:40:53.916Z,62636.11
2019-02-19T13:43:20.178Z,62627.41
2019-02-19T13:45:49.406Z,62631.45
2019-02-19T13:48:15.662Z,62609.22
2019-02-19T13:50:41.900Z,62587.41
2019-02-19T13:53:27.935Z,62570.71
2019-02-19T13:58:41.803Z,62568.88
2019-02-19T14:01:08.062Z,62561.20
2019-02-19T14:03:34.327Z,62559.73
2019-02-19T14:06:00.581Z,62550.89
2019-02-19T14:08:26.827Z,62543.76
2019-02-19T14:10:53.076Z,62539.41
2019-02-19T14:13:19.318Z,62531.41
2019-02-19T14:21:16.382Z,62524.69
2019-02-19T14:24:02.376Z,62518.30
2019-02-19T14:26:48.378Z,62506.09
2019-02-19T14:29:34.400Z,62491.98
2019-02-19T14:37:41.697Z,62460.70
2019-02-19T14:43:27.985Z,62442.06
2019-02-19T14:48:48.106Z,62431.08
2019-02-19T14:51:34.116Z,62413.11
2019-02-19T14:54:20.124Z,62424.57
2019-02-19T14:57:06.130Z,62404.30
2019-02-19T14:59:52.121Z,62388.37
2019-02-19T15:05:12.205Z,62360.86
2019-02-19T15:07:58.180Z,62343.26
2019-02-19T15:10:44.203Z,62336.28
2019-02-19T15:13:30.204Z,62328.75
2019-02-19T15:16:16.192Z,62333.36
2019-02-19T15:19:02.251Z,62323.74
2019-02-19T15:21:48.314Z,62313.93
2019-02-19T15:27:12.437Z,62299.50
2019-02-19T15:32:32.112Z,62291.84
2019-02-19T15:38:05.704Z,62279.85
2019-02-19T15:43:39.349Z,62252.79
2019-02-19T15:46:25.370Z,62226.54
2019-02-19T15:51:58.958Z,62225.80
2019-02-19T15:54:44.951Z,62218.95
2019-02-19T16:00:05.185Z,62202.86
2019-02-19T16:05:25.240Z,62173.17
2019-02-19T16:16:10.117Z,62142.54
2019-02-19T16:18:56.091Z,62147.27
2019-02-19T16:21:42.078Z,62136.79
2019-02-19T16:27:08.404Z,62123.96
2019-02-19T16:32:28.595Z,62122.87
2019-02-19T16:35:14.612Z,62124.76
2019-02-19T16:38:00.612Z,62126.16
2019-02-19T16:40:46.619Z,62121.98
2019-02-19T16:48:54.380Z,62093.60
2019-02-19T16:51:40.393Z,62083.43
2019-02-19T16:57:13.999Z,62074.77
2019-02-19T17:00:00.015Z,62072.08
2019-02-19T17:02:46.033Z,62085.63
2019-02-19T17:05:32.036Z,62075.98
2019-02-19T17:08:18.039Z,62073.81
2019-02-19T17:11:04.040Z,62073.19
2019-02-19T17:13:58.128Z,62068.88
2019-02-19T17:21:59.566Z,62056.44
2019-02-19T17:24:45.573Z,62042.76
2019-02-19T17:30:09.174Z,62038.90
2019-02-19T17:32:55.205Z,62030.93
2019-02-19T17:35:41.205Z,62019.33
2019-02-19T17:46:09.561Z,61991.25
2019-02-19T17:51:29.569Z,61999.73
2019-02-19T17:59:23.567Z,61983.95
2019-02-19T18:02:09.565Z,61985.69
2019-02-19T18:04:55.705Z,61967.30
2019-02-19T18:07:41.698Z,61978.67
2019-02-19T18:10:27.721Z,61971.11
2019-02-19T18:13:13.712Z,61946.46
2019-02-19T18:20:48.086Z,61946.82
2019-02-19T18:23:15.882Z,61927.90
2019-02-19T18:25:42.107Z,61924.66
2019-02-19T18:28:08.371Z,61920.75
2019-02-19T18:30:34.600Z,61914.82
2019-02-19T18:33:00.907Z,61911.78
2019-02-19T18:35:27.143Z,61909.41
2019-02-19T18:37:53.378Z,61917.68
2019-02-19T18:40:19.623Z,61898.98
2019-02-19T18:42:46.074Z,61886.91
2019-02-19T18:45:12.345Z,61892.33
2019-02-19T18:47:38.623Z,61879.28
2019-02-19T18:50:46.161Z,61872.27
2019-02-19T18:53:12.422Z,61861.57
2019-02-19T18:55:38.673Z,61852.74
2019-02-19T18:58:04.924Z,61855.69
2019-02-19T19:00:31.152Z,61840.56
2019-02-19T19:02:57.396Z,61842.38
2019-02-19T19:05:23.639Z,61847.35
2019-02-19T19:07:49.899Z,61849.75
2019-02-19T19:10:16.121Z,61839.61
2019-02-19T19:12:42.370Z,61827.09
2019-02-19T19:18:22.356Z,61805.34
2019-02-19T19:20:48.579Z,61794.76
2019-02-19T19:23:14.830Z,61792.27
2019-02-19T19:25:41.060Z,61786.15
2019-02-19T19:28:07.297Z,61775.84
2019-02-19T19:30:33.542Z,61771.93
2019-02-19T19:32:59.785Z,61766.94
2019-02-19T19:35:26.019Z,61757.61
2019-02-19T19:37:52.259Z,61753.83
2019-02-19T19:40:18.520Z,61747.51
2019-02-19T19:42:44.773Z,61752.40
2019-02-19T19:48:24.501Z,61740.89
2019-02-19T19:50:50.729Z,61733.16
2019-02-19T19:53:16.990Z,61735.91
2019-02-19T19:55:43.229Z,61732.84
2019-02-19T19:58:09.511Z,61731.75
2019-02-19T20:00:35.748Z,61746.86
2019-02-19T20:03:01.988Z,61731.02
2019-02-19T20:05:28.240Z,61730.67
2019-02-19T20:07:54.485Z,61730.93
2019-02-19T20:10:20.720Z,61721.91
2019-02-19T20:12:46.960Z,61717.56
2019-02-19T20:15:13.196Z,61717.27
2019-02-19T20:17:39.434Z,61711.14
2019-02-19T20:20:25.424Z,61703.76
2019-02-19T20:22:51.669Z,61703.27
2019-02-19T20:25:17.931Z,61688.14
2019-02-19T20:27:44.164Z,61673.96
2019-02-19T20:30:30.156Z,61668.98
2019-02-19T20:32:56.392Z,61667.95
2019-02-19T20:35:22.662Z,61655.48
2019-02-19T20:37:54.037Z,61657.13
2019-02-19T20:40:17.072Z,61655.18
2019-02-19T20:42:43.304Z,61657.19
2019-02-19T20:45:50.871Z,61664.49
2019-02-19T20:48:17.120Z,61654.64
2019-02-19T20:50:43.385Z,61653.82
2019-02-19T20:53:09.624Z,61651.46
2019-02-19T20:55:37.430Z,61655.87
2019-02-19T20:58:04.060Z,61653.73
2019-02-19T21:00:30.332Z,61626.83
2019-02-19T21:02:56.568Z,61626.20
2019-02-19T21:05:22.835Z,61618.62
2019-02-19T21:07:49.079Z,61617.54
2019-02-19T21:10:56.635Z,61612.10
2019-02-19T21:13:22.876Z,61615.23
2019-02-19T21:15:49.130Z,61613.93
2019-02-19T21:18:15.365Z,61594.90
2019-02-19T21:20:41.623Z,61588.47
2019-02-19T21:23:07.863Z,61595.49
2019-02-19T21:25:34.128Z,61592.03
2019-02-19T21:28:00.354Z,61604.27
2019-02-19T21:30:26.591Z,61586.71
2019-02-19T21:32:52.830Z,61588.79
2019-02-19T21:35:19.104Z,61579.18
2019-02-19T21:37:45.351Z,61581.68
2019-02-19T21:40:52.901Z,61590.29
2019-02-19T21:43:19.150Z,61594.29
2019-02-19T21:45:45.404Z,61598.04
2019-02-19T21:48:11.638Z,61596.90
2019-02-19T21:50:37.898Z,61600.67
2019-02-19T21:53:04.139Z,61604.78
2019-02-19T21:55:30.385Z,61615.59
2019-02-19T21:57:56.623Z,61631.29
2019-02-19T22:03:10.483Z,61632.55
2019-02-19T22:05:36.760Z,61652.55
2019-02-19T22:08:03.001Z,61672.57
2019-02-19T22:10:29.241Z,61669.66
2019-02-19T22:12:55.494Z,61687.87
2019-02-19T22:15:21.755Z,61690.50
2019-02-19T22:17:48.006Z,61707.64
2019-02-19T22:23:28.423Z,61715.07
2019-02-19T22:25:54.663Z,61727.89
2019-02-19T22:28:22.906Z,61738.77
2019-02-19T22:30:49.061Z,61723.62
2019-02-19T22:33:15.305Z,61735.04
2019-02-19T22:35:48.489Z,61738.02
2019-02-19T22:38:56.052Z,61756.00
2019-02-19T22:41:22.326Z,61762.46
2019-02-19T22:43:48.579Z,61769.46
2019-02-19T22:46:14.821Z,61768.08
2019-02-19T22:48:41.068Z,61771.06
2019-02-19T22:51:07.300Z,61777.52
2019-02-19T22:56:30.768Z,61788.30
2019-02-19T22:58:57.026Z,61804.37
2019-02-19T23:02:04.587Z,61812.79
2019-02-19T23:04:30.935Z,61817.78
2019-02-19T23:06:57.180Z,61836.17
2019-02-19T23:09:23.430Z,61856.78
2019-02-19T23:11:49.671Z,61860.94
2019-02-19T23:14:15.920Z,61875.02
2019-02-19T23:16:42.156Z,61888.11
2019-02-19T23:19:08.420Z,61904.17
2019-02-19T23:21:34.655Z,61950.06
2019-02-19T23:24:00.897Z,61942.28
2019-02-19T23:26:27.134Z,61970.05
2019-02-19T23:28:53.385Z,61960.82
2019-02-19T23:31:19.616Z,61986.31
2019-02-19T23:33:45.879Z,62026.75
2019-02-19T23:36:31.878Z,62040.65
2019-02-19T23:38:58.138Z,62055.72
2019-02-19T23:41:24.367Z,62052.48
2019-02-19T23:43:50.615Z,62046.61
2019-02-19T23:46:16.879Z,62093.33
2019-02-19T23:48:43.137Z,62126.70
2019-02-19T23:51:09.367Z,62127.94
2019-02-19T23:53:35.604Z,62142.15
2019-02-19T23:56:01.843Z,62207.11
2019-02-19T23:58:28.107Z,62262.40
